sensor_id;sensor_type;location;lat;lon;timestamp;temperature;humidity
65470;DHT22;52067;50.710;14.492;2023-10-19T00:01:57;3.11;88.93
65470;DHT22;52067;50.710;14.492;2023-10-19T00:04:27;3.29;88.80
65470;DHT22;52067;50.710;14.492;2023-10-19T00:06:56;3.39;88.83
65470;DHT22;52067;50.710;14.492;2023-10-19T00:09:22;3.48;88.73
65470;DHT22;52067;50.710;14.492;2023-10-19T00:11:48;3.49;88.46
65470;DHT22;52067;50.710;14.492;2023-10-19T00:14:16;3.28;88.52
65470;DHT22;52067;50.710;14.492;2023-10-19T00:16:45;3.35;88.18
65470;DHT22;52067;50.710;14.492;2023-10-19T00:19:21;3.28;88.47
65470;DHT22;52067;50.710;14.492;2023-10-19T00:21:47;3.25;88.60
65470;DHT22;52067;50.710;14.492;2023-10-19T00:24:18;3.43;88.51
65470;DHT22;52067;50.710;14.492;2023-10-19T00:26:56;3.56;88.47
65470;DHT22;52067;50.710;14.492;2023-10-19T00:29:22;3.77;88.10
65470;DHT22;52067;50.710;14.492;2023-10-19T00:32:00;3.77;87.62
65470;DHT22;52067;50.710;14.492;2023-10-19T00:34:27;3.72;87.29
65470;DHT22;52067;50.710;14.492;2023-10-19T00:36:54;3.83;87.24
65470;DHT22;52067;50.710;14.492;2023-10-19T00:39:21;3.73;87.36
65470;DHT22;52067;50.710;14.492;2023-10-19T00:41:47;3.70;87.76
65470;DHT22;52067;50.710;14.492;2023-10-19T00:44:13;3.83;87.38
65470;DHT22;52067;50.710;14.492;2023-10-19T00:46:47;3.87;87.31
65470;DHT22;52067;50.710;14.492;2023-10-19T00:49:18;3.94;87.28
65470;DHT22;52067;50.710;14.492;2023-10-19T00:51:51;3.90;87.10
65470;DHT22;52067;50.710;14.492;2023-10-19T00:54:30;3.91;87.64
65470;DHT22;52067;50.710;14.492;2023-10-19T00:57:09;3.90;87.90
65470;DHT22;52067;50.710;14.492;2023-10-19T00:59:39;3.87;87.34
65470;DHT22;52067;50.710;14.492;2023-10-19T01:02:09;3.98;87.01
65470;DHT22;52067;50.710;14.492;2023-10-19T01:04:44;3.79;87.70
65470;DHT22;52067;50.710;14.492;2023-10-19T01:07:17;3.90;87.76
65470;DHT22;52067;50.710;14.492;2023-10-19T01:10:03;4.01;87.15
65470;DHT22;52067;50.710;14.492;2023-10-19T01:12:33;4.20;87.03
65470;DHT22;52067;50.710;14.492;2023-10-19T01:15:05;4.18;86.82
65470;DHT22;52067;50.710;14.492;2023-10-19T01:17:34;4.44;86.94
65470;DHT22;52067;50.710;14.492;2023-10-19T01:22:46;4.59;85.71
65470;DHT22;52067;50.710;14.492;2023-10-19T01:25:11;4.55;85.50
65470;DHT22;52067;50.710;14.492;2023-10-19T01:27:39;4.58;85.72
65470;DHT22;52067;50.710;14.492;2023-10-19T01:30:05;4.68;85.67
65470;DHT22;52067;50.710;14.492;2023-10-19T01:32:34;4.76;85.68
65470;DHT22;52067;50.710;14.492;2023-10-19T01:35:00;4.75;86.03
65470;DHT22;52067;50.710;14.492;2023-10-19T01:37:25;4.84;85.83
65470;DHT22;52067;50.710;14.492;2023-10-19T01:39:51;4.87;85.42
65470;DHT22;52067;50.710;14.492;2023-10-19T01:42:17;4.83;86.13
65470;DHT22;52067;50.710;14.492;2023-10-19T01:44:43;5.06;85.69
65470;DHT22;52067;50.710;14.492;2023-10-19T01:47:08;4.96;85.45
65470;DHT22;52067;50.710;14.492;2023-10-19T01:49:33;5.17;85.43
65470;DHT22;52067;50.710;14.492;2023-10-19T01:51:59;5.20;85.11
65470;DHT22;52067;50.710;14.492;2023-10-19T01:54:25;5.03;84.78
65470;DHT22;52067;50.710;14.492;2023-10-19T01:56:55;5.19;85.50
65470;DHT22;52067;50.710;14.492;2023-10-19T01:59:26;5.40;84.87
65470;DHT22;52067;50.710;14.492;2023-10-19T02:01:55;5.41;84.72
65470;DHT22;52067;50.710;14.492;2023-10-19T02:04:21;5.35;84.54
65470;DHT22;52067;50.710;14.492;2023-10-19T02:06:47;5.42;84.44
65470;DHT22;52067;50.710;14.492;2023-10-19T02:09:13;5.31;84.96
65470;DHT22;52067;50.710;14.492;2023-10-19T02:11:58;5.16;86.31
65470;DHT22;52067;50.710;14.492;2023-10-19T02:14:27;5.27;85.33
65470;DHT22;52067;50.710;14.492;2023-10-19T02:16:56;5.34;85.02
65470;DHT22;52067;50.710;14.492;2023-10-19T02:19:23;5.41;84.78
65470;DHT22;52067;50.710;14.492;2023-10-19T02:21:54;5.47;84.89
65470;DHT22;52067;50.710;14.492;2023-10-19T02:24:24;5.32;86.05
65470;DHT22;52067;50.710;14.492;2023-10-19T02:26:53;5.42;85.68
65470;DHT22;52067;50.710;14.492;2023-10-19T02:29:19;5.42;85.76
65470;DHT22;52067;50.710;14.492;2023-10-19T02:31:44;5.28;85.58
65470;DHT22;52067;50.710;14.492;2023-10-19T02:34:11;5.27;86.10
65470;DHT22;52067;50.710;14.492;2023-10-19T02:36:41;5.30;86.58
65470;DHT22;52067;50.710;14.492;2023-10-19T02:39:11;5.54;86.43
65470;DHT22;52067;50.710;14.492;2023-10-19T02:41:44;5.61;85.42
65470;DHT22;52067;50.710;14.492;2023-10-19T02:44:16;5.76;84.79
65470;DHT22;52067;50.710;14.492;2023-10-19T02:46:43;5.81;84.32
65470;DHT22;52067;50.710;14.492;2023-10-19T02:49:09;5.69;85.40
65470;DHT22;52067;50.710;14.492;2023-10-19T02:51:40;5.44;86.51
65470;DHT22;52067;50.710;14.492;2023-10-19T02:54:07;5.65;85.81
65470;DHT22;52067;50.710;14.492;2023-10-19T02:56:33;5.58;85.38
65470;DHT22;52067;50.710;14.492;2023-10-19T02:59:03;5.47;86.48
65470;DHT22;52067;50.710;14.492;2023-10-19T03:01:30;5.30;87.47
65470;DHT22;52067;50.710;14.492;2023-10-19T03:03:58;5.58;87.05
65470;DHT22;52067;50.710;14.492;2023-10-19T03:06:28;5.52;87.62
65470;DHT22;52067;50.710;14.492;2023-10-19T03:08:58;5.66;86.93
65470;DHT22;52067;50.710;14.492;2023-10-19T03:11:29;5.72;86.45
65470;DHT22;52067;50.710;14.492;2023-10-19T03:13:55;5.73;87.50
65470;DHT22;52067;50.710;14.492;2023-10-19T03:16:22;5.83;86.47
65470;DHT22;52067;50.710;14.492;2023-10-19T03:18:49;5.90;86.19
65470;DHT22;52067;50.710;14.492;2023-10-19T03:21:16;6.02;85.17
65470;DHT22;52067;50.710;14.492;2023-10-19T03:23:42;6.05;85.16
65470;DHT22;52067;50.710;14.492;2023-10-19T03:26:08;6.19;84.61
65470;DHT22;52067;50.710;14.492;2023-10-19T03:28:45;6.21;84.92
65470;DHT22;52067;50.710;14.492;2023-10-19T03:31:23;6.24;85.04
65470;DHT22;52067;50.710;14.492;2023-10-19T03:33:50;6.29;83.88
65470;DHT22;52067;50.710;14.492;2023-10-19T03:36:21;6.29;84.23
65470;DHT22;52067;50.710;14.492;2023-10-19T03:38:46;6.31;84.32
65470;DHT22;52067;50.710;14.492;2023-10-19T03:41:11;6.34;84.80
65470;DHT22;52067;50.710;14.492;2023-10-19T03:43:37;6.44;84.89
65470;DHT22;52067;50.710;14.492;2023-10-19T03:46:06;6.47;84.89
65470;DHT22;52067;50.710;14.492;2023-10-19T03:48:52;6.38;85.11
65470;DHT22;52067;50.710;14.492;2023-10-19T03:51:17;6.34;85.19
65470;DHT22;52067;50.710;14.492;2023-10-19T03:53:43;6.24;85.88
65470;DHT22;52067;50.710;14.492;2023-10-19T03:56:19;6.23;86.19
65470;DHT22;52067;50.710;14.492;2023-10-19T03:58:45;6.23;86.16
65470;DHT22;52067;50.710;14.492;2023-10-19T04:01:16;6.20;86.53
65470;DHT22;52067;50.710;14.492;2023-10-19T04:03:42;6.16;86.65
65470;DHT22;52067;50.710;14.492;2023-10-19T04:06:09;6.17;87.12
65470;DHT22;52067;50.710;14.492;2023-10-19T04:08:39;6.23;87.05
65470;DHT22;52067;50.710;14.492;2023-10-19T04:11:05;6.13;87.47
65470;DHT22;52067;50.710;14.492;2023-10-19T04:13:49;6.36;87.68
65470;DHT22;52067;50.710;14.492;2023-10-19T04:16:28;6.51;87.79
65470;DHT22;52067;50.710;14.492;2023-10-19T04:18:54;6.38;87.59
65470;DHT22;52067;50.710;14.492;2023-10-19T04:21:19;6.57;87.73
65470;DHT22;52067;50.710;14.492;2023-10-19T04:23:45;6.69;87.60
65470;DHT22;52067;50.710;14.492;2023-10-19T04:26:12;6.78;87.07
65470;DHT22;52067;50.710;14.492;2023-10-19T04:28:40;6.79;87.01
65470;DHT22;52067;50.710;14.492;2023-10-19T04:31:15;6.61;88.45
65470;DHT22;52067;50.710;14.492;2023-10-19T04:33:41;6.33;88.71
65470;DHT22;52067;50.710;14.492;2023-10-19T04:36:13;6.37;88.65
65470;DHT22;52067;50.710;14.492;2023-10-19T04:38:39;6.42;89.36
65470;DHT22;52067;50.710;14.492;2023-10-19T04:41:08;6.40;88.92
65470;DHT22;52067;50.710;14.492;2023-10-19T04:43:35;6.41;89.08
65470;DHT22;52067;50.710;14.492;2023-10-19T04:46:11;6.48;88.59
65470;DHT22;52067;50.710;14.492;2023-10-19T04:48:38;6.17;89.65
65470;DHT22;52067;50.710;14.492;2023-10-19T04:51:06;6.45;89.98
65470;DHT22;52067;50.710;14.492;2023-10-19T04:53:32;6.60;89.26
65470;DHT22;52067;50.710;14.492;2023-10-19T04:55:58;6.69;88.83
65470;DHT22;52067;50.710;14.492;2023-10-19T04:58:26;6.69;88.48
65470;DHT22;52067;50.710;14.492;2023-10-19T05:00:52;6.52;88.84
65470;DHT22;52067;50.710;14.492;2023-10-19T05:03:18;6.61;89.33
65470;DHT22;52067;50.710;14.492;2023-10-19T05:05:44;6.63;88.85
65470;DHT22;52067;50.710;14.492;2023-10-19T05:08:10;6.68;88.81
65470;DHT22;52067;50.710;14.492;2023-10-19T05:10:35;6.79;88.64
65470;DHT22;52067;50.710;14.492;2023-10-19T05:13:01;6.68;88.39
65470;DHT22;52067;50.710;14.492;2023-10-19T05:15:27;6.63;88.83
65470;DHT22;52067;50.710;14.492;2023-10-19T05:17:52;6.60;88.79
65470;DHT22;52067;50.710;14.492;2023-10-19T05:20:18;6.48;89.16
65470;DHT22;52067;50.710;14.492;2023-10-19T05:22:46;6.55;89.39
65470;DHT22;52067;50.710;14.492;2023-10-19T05:25:12;6.63;89.23
65470;DHT22;52067;50.710;14.492;2023-10-19T05:27:38;6.74;89.20
65470;DHT22;52067;50.710;14.492;2023-10-19T05:30:03;6.71;89.19
65470;DHT22;52067;50.710;14.492;2023-10-19T05:32:29;6.81;89.14
65470;DHT22;52067;50.710;14.492;2023-10-19T05:34:56;6.67;89.32
65470;DHT22;52067;50.710;14.492;2023-10-19T05:37:22;6.64;90.21
65470;DHT22;52067;50.710;14.492;2023-10-19T05:39:47;6.33;90.77
65470;DHT22;52067;50.710;14.492;2023-10-19T05:42:17;6.51;90.96
65470;DHT22;52067;50.710;14.492;2023-10-19T05:44:43;6.27;91.07
65470;DHT22;52067;50.710;14.492;2023-10-19T05:47:08;6.26;90.99
65470;DHT22;52067;50.710;14.492;2023-10-19T05:49:33;6.19;91.35
65470;DHT22;52067;50.710;14.492;2023-10-19T05:51:59;6.36;91.25
65470;DHT22;52067;50.710;14.492;2023-10-19T05:54:24;6.45;91.01
65470;DHT22;52067;50.710;14.492;2023-10-19T05:56:50;6.48;90.81
65470;DHT22;52067;50.710;14.492;2023-10-19T05:59:17;6.37;90.71
65470;DHT22;52067;50.710;14.492;2023-10-19T06:01:42;6.48;90.82
65470;DHT22;52067;50.710;14.492;2023-10-19T06:04:11;6.45;90.70
65470;DHT22;52067;50.710;14.492;2023-10-19T06:06:38;6.52;90.68
65470;DHT22;52067;50.710;14.492;2023-10-19T06:09:05;6.55;90.83
65470;DHT22;52067;50.710;14.492;2023-10-19T06:11:34;6.48;90.71
65470;DHT22;52067;50.710;14.492;2023-10-19T06:14:03;6.55;90.56
65470;DHT22;52067;50.710;14.492;2023-10-19T06:16:28;6.51;90.70
65470;DHT22;52067;50.710;14.492;2023-10-19T06:18:54;6.71;90.59
65470;DHT22;52067;50.710;14.492;2023-10-19T06:21:19;6.78;90.40
65470;DHT22;52067;50.710;14.492;2023-10-19T06:23:45;6.72;90.16
65470;DHT22;52067;50.710;14.492;2023-10-19T06:26:11;6.69;90.09
65470;DHT22;52067;50.710;14.492;2023-10-19T06:28:37;6.69;89.85
65470;DHT22;52067;50.710;14.492;2023-10-19T06:31:05;6.54;90.10
65470;DHT22;52067;50.710;14.492;2023-10-19T06:33:30;6.57;90.13
65470;DHT22;52067;50.710;14.492;2023-10-19T06:35:58;6.57;90.22
65470;DHT22;52067;50.710;14.492;2023-10-19T06:38:24;6.57;90.42
65470;DHT22;52067;50.710;14.492;2023-10-19T06:40:51;6.60;90.42
65470;DHT22;52067;50.710;14.492;2023-10-19T06:43:16;6.60;90.37
65470;DHT22;52067;50.710;14.492;2023-10-19T06:45:44;6.63;90.48
65470;DHT22;52067;50.710;14.492;2023-10-19T06:48:10;6.58;90.51
65470;DHT22;52067;50.710;14.492;2023-10-19T06:50:37;6.57;90.71
65470;DHT22;52067;50.710;14.492;2023-10-19T06:53:03;6.71;90.76
65470;DHT22;52067;50.710;14.492;2023-10-19T06:55:30;6.64;90.34
65470;DHT22;52067;50.710;14.492;2023-10-19T06:57:56;6.67;90.59
65470;DHT22;52067;50.710;14.492;2023-10-19T07:00:23;6.78;90.43
65470;DHT22;52067;50.710;14.492;2023-10-19T07:02:52;6.69;90.40
65470;DHT22;52067;50.710;14.492;2023-10-19T07:05:19;6.67;90.53
65470;DHT22;52067;50.710;14.492;2023-10-19T07:07:50;6.74;90.71
65470;DHT22;52067;50.710;14.492;2023-10-19T07:10:18;6.79;90.56
65470;DHT22;52067;50.710;14.492;2023-10-19T07:12:45;6.85;90.52
65470;DHT22;52067;50.710;14.492;2023-10-19T07:15:12;6.81;90.56
65470;DHT22;52067;50.710;14.492;2023-10-19T07:17:41;6.84;90.75
65470;DHT22;52067;50.710;14.492;2023-10-19T07:20:07;7.03;90.70
65470;DHT22;52067;50.710;14.492;2023-10-19T07:22:35;7.00;90.48
65470;DHT22;52067;50.710;14.492;2023-10-19T07:25:07;7.09;90.28
65470;DHT22;52067;50.710;14.492;2023-10-19T07:27:34;7.06;89.95
65470;DHT22;52067;50.710;14.492;2023-10-19T07:30:01;7.05;90.19
65470;DHT22;52067;50.710;14.492;2023-10-19T07:32:30;7.10;90.27
65470;DHT22;52067;50.710;14.492;2023-10-19T07:34:56;7.10;90.17
65470;DHT22;52067;50.710;14.492;2023-10-19T07:37:22;7.05;90.33
65470;DHT22;52067;50.710;14.492;2023-10-19T07:39:48;7.24;89.95
65470;DHT22;52067;50.710;14.492;2023-10-19T07:42:16;7.43;89.70
65470;DHT22;52067;50.710;14.492;2023-10-19T07:44:42;7.39;89.24
65470;DHT22;52067;50.710;14.492;2023-10-19T07:47:07;7.50;89.28
65470;DHT22;52067;50.710;14.492;2023-10-19T07:49:35;7.53;89.15
65470;DHT22;52067;50.710;14.492;2023-10-19T07:52:04;7.36;89.58
65470;DHT22;52067;50.710;14.492;2023-10-19T07:54:32;7.19;89.58
65470;DHT22;52067;50.710;14.492;2023-10-19T07:56:57;7.34;89.44
65470;DHT22;52067;50.710;14.492;2023-10-19T07:59:23;7.29;89.58
65470;DHT22;52067;50.710;14.492;2023-10-19T08:01:48;7.43;89.68
65470;DHT22;52067;50.710;14.492;2023-10-19T08:04:14;7.53;89.33
65470;DHT22;52067;50.710;14.492;2023-10-19T08:06:39;7.40;89.44
65470;DHT22;52067;50.710;14.492;2023-10-19T08:09:04;7.29;89.74
65470;DHT22;52067;50.710;14.492;2023-10-19T08:11:30;7.20;89.86
65470;DHT22;52067;50.710;14.492;2023-10-19T08:13:56;7.18;90.12
65470;DHT22;52067;50.710;14.492;2023-10-19T08:16:22;7.20;90.40
65470;DHT22;52067;50.710;14.492;2023-10-19T08:18:49;6.96;91.02
65470;DHT22;52067;50.710;14.492;2023-10-19T08:21:14;6.99;91.59
65470;DHT22;52067;50.710;14.492;2023-10-19T08:23:39;7.08;91.28
65470;DHT22;52067;50.710;14.492;2023-10-19T08:26:05;7.19;90.98
65470;DHT22;52067;50.710;14.492;2023-10-19T08:28:31;7.16;90.78
65470;DHT22;52067;50.710;14.492;2023-10-19T08:30:58;7.31;90.70
65470;DHT22;52067;50.710;14.492;2023-10-19T08:33:26;7.27;90.46
65470;DHT22;52067;50.710;14.492;2023-10-19T08:35:57;7.56;90.20
65470;DHT22;52067;50.710;14.492;2023-10-19T08:38:25;7.54;89.82
65470;DHT22;52067;50.710;14.492;2023-10-19T08:40:51;7.67;89.88
65470;DHT22;52067;50.710;14.492;2023-10-19T08:43:20;7.46;90.80
65470;DHT22;52067;50.710;14.492;2023-10-19T08:45:46;7.50;90.27
65470;DHT22;52067;50.710;14.492;2023-10-19T08:48:13;7.47;89.97
65470;DHT22;52067;50.710;14.492;2023-10-19T08:50:40;7.54;90.10
65470;DHT22;52067;50.710;14.492;2023-10-19T08:53:08;7.67;90.19
65470;DHT22;52067;50.710;14.492;2023-10-19T08:55:34;7.70;89.98
65470;DHT22;52067;50.710;14.492;2023-10-19T08:58:03;7.39;90.18
65470;DHT22;52067;50.710;14.492;2023-10-19T09:00:45;7.51;90.18
65470;DHT22;52067;50.710;14.492;2023-10-19T09:03:12;7.58;90.48
65470;DHT22;52067;50.710;14.492;2023-10-19T09:05:39;7.60;90.22
65470;DHT22;52067;50.710;14.492;2023-10-19T09:08:05;7.56;90.03
65470;DHT22;52067;50.710;14.492;2023-10-19T09:10:31;7.61;90.03
65470;DHT22;52067;50.710;14.492;2023-10-19T09:13:06;7.73;89.88
65470;DHT22;52067;50.710;14.492;2023-10-19T09:15:39;7.84;90.12
65470;DHT22;52067;50.710;14.492;2023-10-19T09:18:15;7.82;89.90
65470;DHT22;52067;50.710;14.492;2023-10-19T09:20:42;7.68;89.99
65470;DHT22;52067;50.710;14.492;2023-10-19T09:23:20;7.51;90.20
65470;DHT22;52067;50.710;14.492;2023-10-19T09:25:48;7.51;90.79
65470;DHT22;52067;50.710;14.492;2023-10-19T09:28:13;7.47;90.87
65470;DHT22;52067;50.710;14.492;2023-10-19T09:30:40;7.56;90.67
65470;DHT22;52067;50.710;14.492;2023-10-19T09:33:05;7.61;90.66
65470;DHT22;52067;50.710;14.492;2023-10-19T09:35:34;7.68;90.43
65470;DHT22;52067;50.710;14.492;2023-10-19T09:37:59;7.68;90.29
65470;DHT22;52067;50.710;14.492;2023-10-19T09:40:27;7.74;90.39
65470;DHT22;52067;50.710;14.492;2023-10-19T09:42:56;7.64;90.26
65470;DHT22;52067;50.710;14.492;2023-10-19T09:45:25;7.82;90.26
65470;DHT22;52067;50.710;14.492;2023-10-19T09:47:54;7.95;90.34
65470;DHT22;52067;50.710;14.492;2023-10-19T09:50:20;7.92;89.87
65470;DHT22;52067;50.710;14.492;2023-10-19T09:52:45;7.88;90.01
65470;DHT22;52067;50.710;14.492;2023-10-19T09:55:16;7.78;90.09
65470;DHT22;52067;50.710;14.492;2023-10-19T09:57:51;7.89;90.21
65470;DHT22;52067;50.710;14.492;2023-10-19T10:00:18;7.81;90.42
65470;DHT22;52067;50.710;14.492;2023-10-19T10:02:53;7.81;90.25
65470;DHT22;52067;50.710;14.492;2023-10-19T10:05:53;7.77;90.58
65470;DHT22;52067;50.710;14.492;2023-10-19T10:10:45;7.87;90.27
65470;DHT22;52067;50.710;14.492;2023-10-19T10:15:57;8.10;90.25
65470;DHT22;52067;50.710;14.492;2023-10-19T10:18:29;8.05;89.94
65470;DHT22;52067;50.710;14.492;2023-10-19T10:21:10;8.22;89.94
65470;DHT22;52067;50.710;14.492;2023-10-19T10:24:03;8.22;90.45
65470;DHT22;52067;50.710;14.492;2023-10-19T10:26:58;8.43;89.96
65470;DHT22;52067;50.710;14.492;2023-10-19T10:29:23;8.63;89.42
65470;DHT22;52067;50.710;14.492;2023-10-19T10:31:50;8.64;88.81
65470;DHT22;52067;50.710;14.492;2023-10-19T10:37:04;8.52;88.48
65470;DHT22;52067;50.710;14.492;2023-10-19T10:39:33;8.32;89.87
65470;DHT22;52067;50.710;14.492;2023-10-19T10:42:03;8.39;89.46
65470;DHT22;52067;50.710;14.492;2023-10-19T10:44:39;8.59;89.50
65470;DHT22;52067;50.710;14.492;2023-10-19T10:47:09;8.80;89.12
65470;DHT22;52067;50.710;14.492;2023-10-19T10:49:56;8.91;88.98
65470;DHT22;52067;50.710;14.492;2023-10-19T10:52:32;8.89;88.27
65470;DHT22;52067;50.710;14.492;2023-10-19T10:55:06;8.87;88.78
65470;DHT22;52067;50.710;14.492;2023-10-19T10:57:32;8.83;88.58
65470;DHT22;52067;50.710;14.492;2023-10-19T11:00:12;8.94;88.66
65470;DHT22;52067;50.710;14.492;2023-10-19T11:02:45;8.67;89.16
65470;DHT22;52067;50.710;14.492;2023-10-19T11:05:12;8.68;89.32
65470;DHT22;52067;50.710;14.492;2023-10-19T11:07:49;8.60;89.29
65470;DHT22;52067;50.710;14.492;2023-10-19T11:10:30;8.68;89.73
65470;DHT22;52067;50.710;14.492;2023-10-19T11:13:15;8.60;89.44
65470;DHT22;52067;50.710;14.492;2023-10-19T11:15:54;8.68;89.41
65470;DHT22;52067;50.710;14.492;2023-10-19T11:18:37;8.84;89.06
65470;DHT22;52067;50.710;14.492;2023-10-19T11:21:11;8.78;88.60
65470;DHT22;52067;50.710;14.492;2023-10-19T11:23:44;8.74;88.82
65470;DHT22;52067;50.710;14.492;2023-10-19T11:26:13;8.84;89.26
65470;DHT22;52067;50.710;14.492;2023-10-19T11:28:39;8.78;88.93
65470;DHT22;52067;50.710;14.492;2023-10-19T11:31:22;8.83;88.84
65470;DHT22;52067;50.710;14.492;2023-10-19T11:33:48;9.00;88.62
65470;DHT22;52067;50.710;14.492;2023-10-19T11:36:16;8.97;88.81
65470;DHT22;52067;50.710;14.492;2023-10-19T11:38:43;8.98;88.75
65470;DHT22;52067;50.710;14.492;2023-10-19T11:41:10;8.83;88.77
65470;DHT22;52067;50.710;14.492;2023-10-19T11:43:39;9.00;88.62
65470;DHT22;52067;50.710;14.492;2023-10-19T11:46:04;9.03;88.58
65470;DHT22;52067;50.710;14.492;2023-10-19T11:48:31;8.95;88.66
65470;DHT22;52067;50.710;14.492;2023-10-19T11:50:57;9.03;89.17
65470;DHT22;52067;50.710;14.492;2023-10-19T11:53:22;8.94;88.38
65470;DHT22;52067;50.710;14.492;2023-10-19T11:55:48;8.78;88.92
65470;DHT22;52067;50.710;14.492;2023-10-19T11:58:14;8.98;89.41
65470;DHT22;52067;50.710;14.492;2023-10-19T12:00:40;8.98;89.37
65470;DHT22;52067;50.710;14.492;2023-10-19T12:03:09;8.98;89.28
65470;DHT22;52067;50.710;14.492;2023-10-19T12:05:35;9.25;89.38
65470;DHT22;52067;50.710;14.492;2023-10-19T12:08:02;9.28;88.77
65470;DHT22;52067;50.710;14.492;2023-10-19T12:10:28;9.40;88.60
65470;DHT22;52067;50.710;14.492;2023-10-19T12:13:03;9.34;88.80
65470;DHT22;52067;50.710;14.492;2023-10-19T12:15:31;9.28;88.44
65470;DHT22;52067;50.710;14.492;2023-10-19T12:17:57;9.38;88.54
65470;DHT22;52067;50.710;14.492;2023-10-19T12:20:23;9.56;88.11
65470;DHT22;52067;50.710;14.492;2023-10-19T12:22:48;9.64;87.77
65470;DHT22;52067;50.710;14.492;2023-10-19T12:25:17;9.63;87.84
65470;DHT22;52067;50.710;14.492;2023-10-19T12:27:42;9.70;87.79
65470;DHT22;52067;50.710;14.492;2023-10-19T12:30:09;9.89;87.69
65470;DHT22;52067;50.710;14.492;2023-10-19T12:32:47;9.90;87.23
65470;DHT22;52067;50.710;14.492;2023-10-19T12:35:15;9.83;87.76
65470;DHT22;52067;50.710;14.492;2023-10-19T12:37:40;9.77;87.40
65470;DHT22;52067;50.710;14.492;2023-10-19T12:40:14;9.91;87.63
65470;DHT22;52067;50.710;14.492;2023-10-19T12:42:52;9.91;87.37
65470;DHT22;52067;50.710;14.492;2023-10-19T12:45:21;9.82;87.76
65470;DHT22;52067;50.710;14.492;2023-10-19T12:47:47;9.97;87.54
65470;DHT22;52067;50.710;14.492;2023-10-19T12:50:13;10.01;87.24
65470;DHT22;52067;50.710;14.492;2023-10-19T12:52:39;10.10;87.69
65470;DHT22;52067;50.710;14.492;2023-10-19T12:55:06;10.14;86.62
65470;DHT22;52067;50.710;14.492;2023-10-19T12:57:32;10.25;86.74
65470;DHT22;52067;50.710;14.492;2023-10-19T12:59:58;10.34;86.35
65470;DHT22;52067;50.710;14.492;2023-10-19T13:02:31;10.35;86.31
65470;DHT22;52067;50.710;14.492;2023-10-19T13:04:57;10.24;86.67
65470;DHT22;52067;50.710;14.492;2023-10-19T13:07:24;10.15;87.32
65470;DHT22;52067;50.710;14.492;2023-10-19T13:09:51;10.20;87.57
65470;DHT22;52067;50.710;14.492;2023-10-19T13:12:16;10.17;87.37
65470;DHT22;52067;50.710;14.492;2023-10-19T13:14:42;10.30;87.48
65470;DHT22;52067;50.710;14.492;2023-10-19T13:17:09;10.28;87.27
65470;DHT22;52067;50.710;14.492;2023-10-19T13:19:35;10.28;87.66
65470;DHT22;52067;50.710;14.492;2023-10-19T13:22:02;10.49;86.93
65470;DHT22;52067;50.710;14.492;2023-10-19T13:24:33;10.46;86.36
65470;DHT22;52067;50.710;14.492;2023-10-19T13:27:06;10.32;86.59
65470;DHT22;52067;50.710;14.492;2023-10-19T13:29:31;10.40;86.93
65470;DHT22;52067;50.710;14.492;2023-10-19T13:32:03;10.49;86.19
65470;DHT22;52067;50.710;14.492;2023-10-19T13:34:28;10.59;85.93
65470;DHT22;52067;50.710;14.492;2023-10-19T13:36:53;10.56;86.71
65470;DHT22;52067;50.710;14.492;2023-10-19T13:39:21;10.63;86.41
65470;DHT22;52067;50.710;14.492;2023-10-19T13:41:53;10.62;85.86
65470;DHT22;52067;50.710;14.492;2023-10-19T13:44:18;10.55;85.72
65470;DHT22;52067;50.710;14.492;2023-10-19T13:46:46;10.56;85.96
65470;DHT22;52067;50.710;14.492;2023-10-19T13:49:11;10.65;85.83
65470;DHT22;52067;50.710;14.492;2023-10-19T13:51:37;10.68;85.46
65470;DHT22;52067;50.710;14.492;2023-10-19T13:54:04;10.58;85.87
65470;DHT22;52067;50.710;14.492;2023-10-19T13:56:30;10.61;85.84
65470;DHT22;52067;50.710;14.492;2023-10-19T13:58:56;10.45;85.94
65470;DHT22;52067;50.710;14.492;2023-10-19T14:01:21;10.45;85.99
65470;DHT22;52067;50.710;14.492;2023-10-19T14:03:53;10.40;86.53
65470;DHT22;52067;50.710;14.492;2023-10-19T14:06:20;10.41;86.58
65470;DHT22;52067;50.710;14.492;2023-10-19T14:08:45;10.42;86.41
65470;DHT22;52067;50.710;14.492;2023-10-19T14:11:13;10.48;86.70
65470;DHT22;52067;50.710;14.492;2023-10-19T14:13:39;10.48;86.68
65470;DHT22;52067;50.710;14.492;2023-10-19T14:16:07;10.38;86.36
65470;DHT22;52067;50.710;14.492;2023-10-19T14:18:33;10.40;86.80
65470;DHT22;52067;50.710;14.492;2023-10-19T14:20:58;10.48;86.83
65470;DHT22;52067;50.710;14.492;2023-10-19T14:23:24;10.65;86.72
65470;DHT22;52067;50.710;14.492;2023-10-19T14:25:49;10.75;86.48
65470;DHT22;52067;50.710;14.492;2023-10-19T14:28:15;10.75;86.40
65470;DHT22;52067;50.710;14.492;2023-10-19T14:30:40;10.48;86.33
65470;DHT22;52067;50.710;14.492;2023-10-19T14:33:06;10.25;87.25
65470;DHT22;52067;50.710;14.492;2023-10-19T14:35:36;10.35;88.21
65470;DHT22;52067;50.710;14.492;2023-10-19T14:38:04;10.59;87.60
65470;DHT22;52067;50.710;14.492;2023-10-19T14:40:31;10.48;87.84
65470;DHT22;52067;50.710;14.492;2023-10-19T14:42:57;10.49;86.97
65470;DHT22;52067;50.710;14.492;2023-10-19T14:45:25;10.55;87.07
65470;DHT22;52067;50.710;14.492;2023-10-19T14:47:58;10.22;87.44
65470;DHT22;52067;50.710;14.492;2023-10-19T14:50:24;10.37;87.79
65470;DHT22;52067;50.710;14.492;2023-10-19T14:52:51;10.56;87.63
65470;DHT22;52067;50.710;14.492;2023-10-19T14:55:18;10.69;86.97
65470;DHT22;52067;50.710;14.492;2023-10-19T14:57:45;10.49;87.44
65470;DHT22;52067;50.710;14.492;2023-10-19T15:00:12;10.66;86.83
65470;DHT22;52067;50.710;14.492;2023-10-19T15:02:37;10.59;86.80
65470;DHT22;52067;50.710;14.492;2023-10-19T15:05:04;10.63;86.68
65470;DHT22;52067;50.710;14.492;2023-10-19T15:07:30;10.62;87.12
65470;DHT22;52067;50.710;14.492;2023-10-19T15:09:55;10.58;87.06
65470;DHT22;52067;50.710;14.492;2023-10-19T15:12:21;10.10;88.56
65470;DHT22;52067;50.710;14.492;2023-10-19T15:14:46;10.17;88.58
65470;DHT22;52067;50.710;14.492;2023-10-19T15:17:12;10.32;88.62
65470;DHT22;52067;50.710;14.492;2023-10-19T15:19:37;10.48;88.36
65470;DHT22;52067;50.710;14.492;2023-10-19T15:22:03;10.49;87.86
65470;DHT22;52067;50.710;14.492;2023-10-19T15:24:28;10.61;87.71
65470;DHT22;52067;50.710;14.492;2023-10-19T15:26:54;10.49;87.66
65470;DHT22;52067;50.710;14.492;2023-10-19T15:29:19;10.58;87.62
65470;DHT22;52067;50.710;14.492;2023-10-19T15:31:44;10.56;87.60
65470;DHT22;52067;50.710;14.492;2023-10-19T15:34:10;10.52;87.64
65470;DHT22;52067;50.710;14.492;2023-10-19T15:36:35;10.58;87.73
65470;DHT22;52067;50.710;14.492;2023-10-19T15:39:02;10.52;88.08
65470;DHT22;52067;50.710;14.492;2023-10-19T15:41:27;10.58;87.89
65470;DHT22;52067;50.710;14.492;2023-10-19T15:43:53;10.30;88.17
65470;DHT22;52067;50.710;14.492;2023-10-19T15:46:18;10.00;89.40